Terminal Aerodrome Forecast
Issued by NWS

Home | Current Version | Previous Version | Text Only | Print | Product List | Glossary On
Versions: 1 2 3 4 5 6 7 8 9 10 11 12
447
FTUS46 KPDT 290535
TAFPSC
TAF
KPSC 290535Z 2906/3006 35007KT P6SM SKC
     FM291000 VRB04KT P6SM SCT250
     FM292100 01005KT P6SM FEW120 SCT250
     FM300000 21005KT P6SM SCT120 BKN250=

USA.gov is the U.S. government's official web portal to all federal, state and local government web resources and services.